createdAt,value
2019-02-04T00:02:23.137Z,27
2019-02-04T00:07:25.668Z,24
2019-02-04T00:12:28.055Z,30
2019-02-04T00:17:30.528Z,27
2019-02-04T00:22:32.976Z,27
2019-02-04T00:27:35.472Z,30
2019-02-04T00:32:37.903Z,29
2019-02-04T00:37:40.658Z,29
2019-02-04T00:42:42.820Z,28
2019-02-04T00:47:45.276Z,30
2019-02-04T00:52:47.746Z,29
2019-02-04T00:57:50.208Z,24
2019-02-04T01:02:52.687Z,27
2019-02-04T01:07:55.129Z,21
2019-02-04T01:12:57.649Z,23
2019-02-04T01:18:00.061Z,24
2019-02-04T01:23:02.516Z,23
2019-02-04T01:28:04.973Z,20
2019-02-04T01:33:07.435Z,18
2019-02-04T01:38:09.887Z,20
2019-02-04T01:43:12.356Z,16
2019-02-04T01:48:14.844Z,15
2019-02-04T01:53:17.328Z,18
2019-02-04T01:58:19.749Z,22
2019-02-04T02:03:22.209Z,26
2019-02-04T02:08:24.998Z,24
2019-02-04T02:13:27.124Z,25
2019-02-04T02:18:29.589Z,24
2019-02-04T02:23:32.109Z,28
2019-02-04T02:28:34.539Z,24
2019-02-04T02:33:37.003Z,28
2019-02-04T02:38:39.449Z,26
2019-02-04T02:43:41.933Z,24
2019-02-04T02:48:44.377Z,28
2019-02-04T02:53:46.850Z,24
2019-02-04T02:58:49.299Z,23
2019-02-04T03:03:51.791Z,22
2019-02-04T03:08:54.243Z,28
2019-02-04T03:13:56.679Z,29
2019-02-04T03:18:59.173Z,25
2019-02-04T03:24:01.627Z,22
2019-02-04T03:29:04.069Z,24
2019-02-04T03:34:06.525Z,22
2019-02-04T03:39:09.014Z,18
2019-02-04T03:44:11.477Z,19
2019-02-04T03:49:13.952Z,16
2019-02-04T03:54:16.383Z,13
2019-02-04T03:59:18.850Z,16
2019-02-04T04:04:21.301Z,15
2019-02-04T04:09:23.793Z,11
2019-02-04T04:14:26.238Z,13
2019-02-04T04:19:28.852Z,14
2019-02-04T04:24:31.204Z,16
2019-02-04T04:29:33.640Z,12
2019-02-04T04:34:36.072Z,9
2019-02-04T04:39:38.568Z,11
2019-02-04T04:44:40.996Z,13
2019-02-04T04:49:43.497Z,15
2019-02-04T04:54:46.003Z,10
2019-02-04T04:59:48.390Z,11
2019-02-04T05:04:50.853Z,14
2019-02-04T05:09:53.333Z,14
2019-02-04T05:14:55.812Z,15
2019-02-04T05:19:58.261Z,16
2019-02-04T05:25:00.742Z,13
2019-02-04T05:30:03.254Z,14
2019-02-04T05:35:05.627Z,15
2019-02-04T05:40:08.318Z,17
2019-02-04T05:45:10.581Z,11
2019-02-04T05:50:13.043Z,15
2019-02-04T05:55:15.574Z,16
2019-02-04T06:00:17.949Z,14
2019-02-04T06:05:20.402Z,11
2019-02-04T06:10:22.903Z,7
2019-02-04T06:15:25.324Z,14
2019-02-04T06:20:27.779Z,12
2019-02-04T06:25:30.283Z,16
2019-02-04T06:30:32.736Z,13
2019-02-04T06:35:35.158Z,18
2019-02-04T06:40:37.618Z,14
2019-02-04T06:45:40.072Z,13
2019-02-04T06:50:42.560Z,14
2019-02-04T06:55:45.021Z,15
2019-02-04T07:00:47.561Z,16
2019-02-04T07:05:49.911Z,12
2019-02-04T07:10:52.416Z,11
2019-02-04T07:15:54.914Z,14
2019-02-04T07:20:57.310Z,16
2019-02-04T07:25:59.767Z,16
2019-02-04T07:31:02.290Z,16
2019-02-04T07:36:04.703Z,15
2019-02-04T07:41:07.182Z,14
2019-02-04T07:46:09.642Z,12
2019-02-04T07:51:12.090Z,16
2019-02-04T07:56:14.560Z,11
2019-02-04T08:01:17.106Z,10
2019-02-04T08:06:19.499Z,15
2019-02-04T08:11:22.063Z,13
2019-02-04T08:16:24.417Z,8
2019-02-04T08:21:26.881Z,10
2019-02-04T08:26:30.091Z,10
2019-02-04T08:31:31.816Z,8
2019-02-04T08:36:43.230Z,8
2019-02-04T08:41:36.756Z,9
2019-02-04T08:46:39.275Z,7
2019-02-04T08:51:41.663Z,6
2019-02-04T08:56:44.168Z,8
2019-02-04T09:01:46.553Z,6
2019-02-04T09:06:49.001Z,9
2019-02-04T09:11:51.536Z,7
2019-02-04T09:16:54.043Z,11
2019-02-04T09:21:56.406Z,10
2019-02-04T09:26:58.858Z,9
2019-02-04T09:32:01.429Z,6
2019-02-04T09:37:03.772Z,9
2019-02-04T09:42:06.218Z,6
2019-02-04T09:47:08.698Z,8
2019-02-04T09:52:11.139Z,6
2019-02-04T09:57:13.591Z,6
2019-02-04T10:02:16.062Z,11
2019-02-04T10:07:18.510Z,6
2019-02-04T10:12:20.971Z,8
2019-02-04T10:17:23.440Z,7
2019-02-04T10:22:25.912Z,6
2019-02-04T10:27:28.398Z,4
2019-02-04T10:32:30.833Z,5
2019-02-04T10:37:33.290Z,5
2019-02-04T10:42:35.729Z,5
2019-02-04T10:47:38.318Z,3
2019-02-04T10:52:40.764Z,3
2019-02-04T10:57:43.118Z,7
2019-02-04T11:02:45.646Z,4
2019-02-04T11:07:48.016Z,4
2019-02-04T11:12:50.521Z,4
2019-02-04T11:17:52.997Z,4
2019-02-04T11:22:55.382Z,4
2019-02-04T11:27:57.890Z,3
2019-02-04T11:33:00.338Z,6
2019-02-04T11:38:02.765Z,6
2019-02-04T11:43:05.269Z,6
2019-02-04T11:48:07.822Z,4
2019-02-04T11:53:10.142Z,9
2019-02-04T11:58:12.653Z,4
2019-02-04T12:03:15.046Z,4
2019-02-04T12:08:17.534Z,5
2019-02-04T12:13:19.991Z,9
2019-02-04T12:18:22.422Z,11
2019-02-04T12:23:24.902Z,5
2019-02-04T12:28:27.339Z,4
2019-02-04T12:33:29.919Z,7
2019-02-04T12:38:32.407Z,3
2019-02-04T12:43:34.754Z,3
2019-02-04T12:48:37.226Z,3
2019-02-04T12:53:39.636Z,5
2019-02-04T12:58:42.111Z,2
2019-02-04T13:03:44.547Z,4
2019-02-04T13:08:47.016Z,6
2019-02-04T13:13:49.500Z,5
2019-02-04T13:18:51.951Z,3
2019-02-04T13:23:54.390Z,5
2019-02-04T13:28:56.838Z,4
2019-02-04T13:33:59.346Z,4
2019-02-04T13:39:01.821Z,7
2019-02-04T13:44:04.215Z,3
2019-02-04T13:49:06.660Z,2
2019-02-04T13:54:09.170Z,3
2019-02-04T13:59:11.596Z,5
2019-02-04T14:04:14.109Z,10
2019-02-04T14:09:16.559Z,7
2019-02-04T14:14:19.024Z,4
2019-02-04T14:19:21.506Z,5
2019-02-04T14:24:23.889Z,3
2019-02-04T14:29:26.344Z,6
2019-02-04T14:34:28.807Z,2
2019-02-04T14:39:31.292Z,6
2019-02-04T14:44:33.738Z,4
2019-02-04T14:49:36.157Z,3
2019-02-04T14:54:38.809Z,4
2019-02-04T14:59:41.342Z,4
2019-02-04T15:04:43.530Z,3
2019-02-04T15:09:45.990Z,3
2019-02-04T15:14:48.444Z,4
2019-02-04T15:19:50.907Z,6
2019-02-04T15:24:53.395Z,3
2019-02-04T15:29:55.952Z,5
2019-02-04T15:35:04.321Z,4
2019-02-04T15:40:00.853Z,6
2019-02-04T15:45:03.235Z,12
2019-02-04T15:50:05.698Z,19
2019-02-04T15:55:08.166Z,27
2019-02-04T16:00:10.635Z,27
2019-02-04T16:05:13.383Z,11
2019-02-04T16:10:15.522Z,11
2019-02-04T16:15:18.189Z,7
2019-02-04T16:20:20.454Z,5
2019-02-04T16:25:22.910Z,9
2019-02-04T16:30:25.417Z,10
2019-02-04T16:35:27.885Z,10
2019-02-04T16:40:30.337Z,12
2019-02-04T16:45:32.769Z,9
2019-02-04T16:50:35.296Z,11
2019-02-04T16:55:37.670Z,10
2019-02-04T17:00:40.178Z,14
2019-02-04T17:05:42.589Z,12
2019-02-04T17:10:45.081Z,19
2019-02-04T17:15:47.549Z,27
2019-02-04T17:20:50.109Z,13
2019-02-04T17:25:52.400Z,20
2019-02-04T17:30:54.876Z,18
2019-02-04T17:35:57.340Z,17
2019-02-04T17:40:59.887Z,22
2019-02-04T17:46:02.328Z,26
2019-02-04T17:51:04.707Z,19
2019-02-04T17:56:07.395Z,27
2019-02-04T18:01:09.701Z,23
2019-02-04T18:06:12.304Z,25
2019-02-04T18:11:14.534Z,28
2019-02-04T18:16:17.028Z,22
2019-02-04T18:21:19.431Z,22
2019-02-04T18:26:21.931Z,16
2019-02-04T18:31:24.373Z,20
2019-02-04T18:36:26.840Z,19
2019-02-04T18:41:29.301Z,18
2019-02-04T18:46:31.710Z,20
2019-02-04T18:51:34.185Z,19
2019-02-04T18:56:36.651Z,23
2019-02-04T19:01:39.078Z,29
2019-02-04T19:06:47.530Z,32
2019-02-04T19:11:44.022Z,22
2019-02-04T19:16:46.447Z,28
2019-02-04T19:21:49.041Z,23
2019-02-04T19:26:53.950Z,28
2019-02-04T19:31:53.825Z,25
2019-02-04T19:36:56.301Z,24
2019-02-04T19:41:58.747Z,20
2019-02-04T19:47:01.350Z,23
2019-02-04T19:52:03.647Z,20
2019-02-04T19:57:06.394Z,18
2019-02-04T20:02:08.607Z,18
2019-02-04T20:07:11.036Z,13
2019-02-04T20:12:13.469Z,13
2019-02-04T20:17:15.943Z,13
2019-02-04T20:22:18.382Z,14
2019-02-04T20:27:20.846Z,5
2019-02-04T20:32:23.299Z,14
2019-02-04T20:37:25.767Z,20
2019-02-04T20:42:28.287Z,11
2019-02-04T20:47:30.735Z,10
2019-02-04T20:52:33.123Z,9
2019-02-04T20:57:35.650Z,7
2019-02-04T21:02:38.105Z,7
2019-02-04T21:07:40.529Z,7
2019-02-04T21:12:42.960Z,12
2019-02-04T21:17:45.715Z,7
2019-02-04T21:22:47.897Z,21
2019-02-04T21:27:50.327Z,10
2019-02-04T21:32:52.946Z,8
2019-02-04T21:37:55.242Z,8
2019-02-04T21:42:57.702Z,8
2019-02-04T21:48:00.154Z,9
2019-02-04T21:53:02.640Z,9
2019-02-04T21:58:05.070Z,8
2019-02-04T22:03:07.524Z,6
2019-02-04T22:08:10.114Z,10
2019-02-04T22:13:12.433Z,24
2019-02-04T22:18:14.923Z,9
2019-02-04T22:23:17.385Z,9
2019-02-04T22:28:19.836Z,10
2019-02-04T22:33:22.266Z,6
2019-02-04T22:38:24.728Z,10
2019-02-04T22:43:27.179Z,10
2019-02-04T22:48:29.641Z,10
2019-02-04T22:53:32.087Z,10
2019-02-04T22:58:34.601Z,8
2019-02-04T23:03:37.015Z,7
2019-02-04T23:08:39.454Z,5
2019-02-04T23:13:41.916Z,6
2019-02-04T23:18:44.388Z,7
2019-02-04T23:23:46.876Z,6
2019-02-04T23:28:49.273Z,9
2019-02-04T23:33:51.768Z,7
2019-02-04T23:38:54.252Z,8
2019-02-04T23:43:56.662Z,6
2019-02-04T23:48:59.132Z,9
2019-02-04T23:54:01.573Z,7
2019-02-04T23:59:04.043Z,7
